Time;durP1;ratioP1;P1;durP2;ratioP2;P2;SDS_P1;SDS_P2;PMS_P1;PMS_P2;Temp;Humidity;BMP_temperature;BMP_pressure;BME280_temperature;BME280_humidity;BME280_pressure;Samples;Min_cycle;Max_cycle;Signal;HPM_P1;HPM_P2
2023/06/22 00:00:31;;;;;;;11.37;7.23;;;17.90;99.90;;;;;;2095717;28;20488;-64
2023/06/22 00:01:32;;;;;;;11.97;7.63;;;17.80;99.90;;;;;;2095984;28;20468;-64
2023/06/22 00:02:33;;;;;;;9.30;7.27;;;17.80;99.90;;;;;;2095463;28;20356;-65
2023/06/22 00:03:33;;;;;;;8.50;7.20;;;17.80;99.90;;;;;;2083166;28;20236;-65
2023/06/22 00:04:34;;;;;;;14.23;7.33;;;17.80;99.90;;;;;;2079198;28;20343;-64
2023/06/22 00:05:35;;;;;;;10.70;8.03;;;17.80;99.90;;;;;;2097142;28;20262;-64
2023/06/22 00:06:35;;;;;;;10.93;7.90;;;17.70;99.90;;;;;;2099259;28;20223;-65
2023/06/22 00:07:36;;;;;;;9.97;7.57;;;17.70;99.90;;;;;;2086429;28;20223;-64
2023/06/22 00:08:37;;;;;;;12.07;7.53;;;17.70;99.90;;;;;;2087216;28;21749;-65
2023/06/22 00:09:37;;;;;;;14.30;8.30;;;17.70;99.90;;;;;;2080304;28;20237;-64
2023/06/22 00:10:38;;;;;;;11.67;8.23;;;17.80;99.90;;;;;;2081632;28;20236;-65
2023/06/22 00:11:39;;;;;;;14.20;7.40;;;17.70;99.90;;;;;;2086390;28;20224;-69
2023/06/22 00:12:39;;;;;;;10.73;8.27;;;17.60;99.90;;;;;;2086578;28;20301;-64
2023/06/22 00:13:40;;;;;;;9.93;7.73;;;17.60;99.90;;;;;;2087213;28;20592;-65
2023/06/22 00:14:41;;;;;;;10.37;7.07;;;17.60;99.90;;;;;;2085380;28;20298;-65
2023/06/22 00:15:42;;;;;;;13.23;8.13;;;17.50;99.90;;;;;;2097280;28;20222;-64
2023/06/22 00:16:43;;;;;;;12.93;8.53;;;17.60;99.90;;;;;;2090503;28;20223;-65
2023/06/22 00:17:43;;;;;;;13.73;8.63;;;17.60;99.90;;;;;;2086435;28;20484;-64
2023/06/22 00:18:47;;;;;;;10.97;7.40;;;17.60;99.90;;;;;;2086872;28;20306;-65
2023/06/22 00:19:53;;;;;;;12.40;7.60;;;17.60;99.90;;;;;;2082059;28;20561;-64
2023/06/22 00:20:57;;;;;;;12.50;7.80;;;17.60;99.90;;;;;;2077747;28;20481;-64
2023/06/22 00:22:00;;;;;;;10.67;8.27;;;17.60;99.90;;;;;;2083316;28;20995;-65
2023/06/22 00:23:00;;;;;;;8.13;6.70;;;17.60;99.90;;;;;;2086931;28;20505;-64
2023/06/22 00:24:02;;;;;;;10.10;7.17;;;17.50;99.90;;;;;;2086815;28;20440;-65
2023/06/22 00:25:03;;;;;;;10.20;7.43;;;17.30;99.90;;;;;;2086476;28;20226;-64
2023/06/22 00:26:03;;;;;;;12.40;7.73;;;17.20;99.90;;;;;;2099732;28;20420;-65
2023/06/22 00:27:05;;;;;;;12.07;8.03;;;17.30;99.90;;;;;;2101515;28;20480;-65
2023/06/22 00:28:07;;;;;;;12.33;8.03;;;17.30;99.90;;;;;;2087746;28;20269;-64
2023/06/22 00:29:08;;;;;;;11.30;8.60;;;17.40;99.90;;;;;;2084945;28;20417;-64
2023/06/22 00:30:09;;;;;;;10.37;8.00;;;17.50;99.90;;;;;;2078175;28;20449;-64
2023/06/22 00:31:10;;;;;;;12.37;8.40;;;17.50;99.90;;;;;;2078630;28;20217;-65
2023/06/22 00:32:11;;;;;;;14.53;8.20;;;17.50;99.90;;;;;;2086538;28;20433;-65
2023/06/22 00:33:11;;;;;;;13.30;7.57;;;17.60;99.90;;;;;;2086555;28;20218;-64
2023/06/22 00:34:12;;;;;;;14.13;8.63;;;17.60;99.90;;;;;;2086269;28;20195;-64
2023/06/22 00:35:13;;;;;;;11.63;7.43;;;17.60;99.90;;;;;;2086412;28;20739;-64
2023/06/22 00:36:16;;;;;;;10.00;7.13;;;17.40;99.90;;;;;;2085775;28;20210;-64
2023/06/22 00:37:18;;;;;;;9.37;7.03;;;17.30;99.90;;;;;;2086330;28;20465;-65
2023/06/22 00:38:18;;;;;;;11.23;7.90;;;17.10;99.90;;;;;;2083980;28;20510;-64
2023/06/22 00:39:19;;;;;;;14.43;8.13;;;17.10;99.90;;;;;;2078285;28;20476;-64
2023/06/22 00:40:21;;;;;;;11.53;8.10;;;17.10;99.90;;;;;;2075935;28;20295;-64
2023/06/22 00:41:22;;;;;;;10.80;7.50;;;17.20;99.90;;;;;;2088772;28;20224;-65
2023/06/22 00:42:23;;;;;;;11.30;8.00;;;17.20;99.90;;;;;;2080958;28;20474;-64
2023/06/22 00:43:24;;;;;;;12.53;7.03;;;17.20;99.90;;;;;;2081637;28;20710;-64
2023/06/22 00:44:25;;;;;;;11.50;7.60;;;17.20;99.90;;;;;;2082032;28;21020;-63
2023/06/22 00:45:26;;;;;;;13.27;8.77;;;17.20;99.90;;;;;;2082193;28;20469;-64
2023/06/22 00:46:27;;;;;;;11.43;8.33;;;17.20;99.90;;;;;;2088495;28;20770;-64
2023/06/22 00:47:28;;;;;;;11.27;7.47;;;17.10;99.90;;;;;;2080452;28;20502;-64
2023/06/22 00:48:29;;;;;;;14.53;8.40;;;17.20;99.90;;;;;;2085132;28;20477;-64
2023/06/22 00:49:30;;;;;;;9.63;7.50;;;17.20;99.90;;;;;;2088813;28;20465;-64
2023/06/22 00:50:34;;;;;;;11.47;7.43;;;17.30;99.90;;;;;;2084688;28;20228;-64
2023/06/22 00:51:38;;;;;;;9.37;6.87;;;17.30;99.90;;;;;;2078726;28;20599;-65
2023/06/22 00:52:46;;;;;;;11.17;8.30;;;17.30;99.90;;;;;;2083019;28;20480;-65
2023/06/22 00:53:47;;;;;;;11.63;7.20;;;17.30;99.90;;;;;;2088171;28;20516;-64
2023/06/22 00:54:48;;;;;;;13.63;8.47;;;17.30;99.90;;;;;;2087787;28;20507;-63
2023/06/22 00:55:52;;;;;;;15.33;8.97;;;17.20;99.90;;;;;;2084214;28;20469;-63
2023/06/22 00:56:57;;;;;;;12.47;8.00;;;17.30;99.90;;;;;;2084461;28;20469;-63
2023/06/22 00:57:58;;;;;;;11.47;8.03;;;17.20;99.90;;;;;;2075099;28;20932;-64
2023/06/22 00:58:59;;;;;;;10.60;8.20;;;17.00;99.90;;;;;;2085264;28;20459;-63
2023/06/22 01:00:00;;;;;;;13.03;8.80;;;17.10;99.90;;;;;;2087543;28;20200;-64
2023/06/22 01:01:01;;;;;;;11.70;8.30;;;17.10;99.90;;;;;;2080044;28;20434;-64
2023/06/22 01:02:02;;;;;;;12.00;8.90;;;17.20;99.90;;;;;;2088210;28;20674;-64
2023/06/22 01:03:03;;;;;;;16.63;9.67;;;17.30;99.90;;;;;;2086929;28;20428;-63
2023/06/22 01:04:05;;;;;;;14.43;8.87;;;17.30;99.90;;;;;;2087824;28;20188;-64
2023/06/22 01:05:06;;;;;;;14.20;9.30;;;17.30;99.90;;;;;;2082071;28;20422;-64
2023/06/22 01:06:19;;;;;;;12.77;9.23;;;17.40;99.90;;;;;;2093037;28;20416;-64
2023/06/22 01:07:49;;;;;;;14.80;9.00;;;17.40;99.90;;;;;;2093059;28;20509;-63
2023/06/22 01:09:09;;;;;;;16.80;8.43;;;17.40;99.90;;;;;;2084433;28;20480;-63
2023/06/22 01:10:27;;;;;;;11.90;7.83;;;17.40;99.90;;;;;;2090288;28;20494;-63
2023/06/22 01:11:45;;;;;;;13.40;8.40;;;17.40;99.90;;;;;;2096075;28;20974;-64
2023/06/22 01:12:55;;;;;;;13.73;9.50;;;17.40;99.90;;;;;;2096113;28;20876;-64
2023/06/22 01:14:04;;;;;;;11.67;8.37;;;17.50;99.90;;;;;;2090268;28;20511;-63
2023/06/22 01:15:20;;;;;;;13.63;9.27;;;17.50;99.90;;;;;;2081112;28;20920;-66
2023/06/22 01:16:29;;;;;;;14.73;8.73;;;17.60;99.90;;;;;;2077739;28;20497;-63
2023/06/22 01:17:32;;;;;;;13.07;9.53;;;17.50;99.90;;;;;;2089016;28;21249;-64
2023/06/22 01:18:36;;;;;;;16.50;8.97;;;17.50;99.90;;;;;;2089934;28;20518;-63
2023/06/22 01:19:55;;;;;;;16.47;9.90;;;17.50;99.90;;;;;;2071802;28;20835;-64
2023/06/22 01:20:57;;;;;;;14.90;9.37;;;17.50;99.90;;;;;;2086780;28;20456;-65
2023/06/22 01:22:00;;;;;;;15.33;9.80;;;17.50;99.90;;;;;;2085123;28;20799;-63
2023/06/22 01:23:31;;;;;;;13.03;9.90;;;17.50;99.90;;;;;;2079765;28;20453;-65
2023/06/22 01:25:10;;;;;;;16.07;9.40;;;17.50;99.90;;;;;;2092083;28;20475;-63
2023/06/22 01:27:05;;;;;;;15.77;9.17;;;17.50;99.90;;;;;;2089267;28;20598;-63
2023/06/22 01:28:42;;;;;;;12.03;8.37;;;17.40;99.90;;;;;;2076435;28;20488;-68
2023/06/22 01:29:44;;;;;;;15.33;8.87;;;17.40;99.90;;;;;;2088577;28;20472;-64
2023/06/22 01:30:49;;;;;;;18.43;10.37;;;17.40;99.90;;;;;;2089444;28;20469;-63
2023/06/22 01:31:51;;;;;;;13.97;9.23;;;17.40;99.90;;;;;;2093856;28;20533;-64
2023/06/22 01:32:56;;;;;;;14.30;9.03;;;17.50;99.90;;;;;;2087820;28;20479;-67
2023/06/22 01:34:01;;;;;;;12.27;8.83;;;17.40;99.90;;;;;;2076759;28;20454;-63
2023/06/22 01:35:06;;;;;;;14.67;9.33;;;17.40;99.90;;;;;;2084834;28;20931;-64
2023/06/22 01:36:08;;;;;;;12.23;9.07;;;17.40;99.90;;;;;;2080062;28;20925;-64
2023/06/22 01:37:09;;;;;;;16.73;9.00;;;17.40;99.90;;;;;;2085190;28;20444;-64
2023/06/22 01:38:10;;;;;;;15.33;8.90;;;17.40;99.90;;;;;;2092900;28;20444;-64
2023/06/22 01:39:12;;;;;;;12.67;9.43;;;17.40;99.90;;;;;;2092323;28;20540;-64
2023/06/22 01:40:14;;;;;;;13.63;8.90;;;17.40;99.90;;;;;;2092353;28;20812;-64
2023/06/22 01:41:17;;;;;;;11.13;8.70;;;17.40;99.90;;;;;;2095982;28;21025;-64
2023/06/22 01:42:17;;;;;;;13.30;8.77;;;17.40;99.90;;;;;;2092193;28;20476;-62
2023/06/22 01:43:22;;;;;;;17.07;10.10;;;17.40;99.90;;;;;;2096406;28;20482;-63
2023/06/22 01:44:25;;;;;;;16.63;10.30;;;17.40;99.90;;;;;;2092622;28;20322;-64
2023/06/22 01:45:27;;;;;;;12.67;9.00;;;17.30;99.90;;;;;;2091702;28;20488;-63
2023/06/22 01:46:29;;;;;;;11.87;8.07;;;17.30;99.90;;;;;;2084017;28;20505;-64
2023/06/22 01:47:30;;;;;;;13.20;9.47;;;17.20;99.90;;;;;;2087858;28;20473;-64
2023/06/22 01:48:32;;;;;;;9.93;7.80;;;17.20;99.90;;;;;;2087144;28;20484;-64
2023/06/22 01:49:32;;;;;;;14.83;10.13;;;17.10;99.90;;;;;;2088319;28;20483;-64
2023/06/22 01:50:33;;;;;;;12.63;8.47;;;17.10;99.90;;;;;;2089990;28;20502;-64
2023/06/22 01:51:34;;;;;;;13.23;9.77;;;17.10;99.90;;;;;;2087620;28;20699;-63
2023/06/22 01:52:35;;;;;;;13.37;9.40;;;17.00;99.90;;;;;;2090967;28;20241;-64
2023/06/22 01:53:35;;;;;;;13.77;9.10;;;16.90;99.90;;;;;;2104075;28;20229;-64
2023/06/22 01:54:40;;;;;;;14.47;9.37;;;17.00;99.90;;;;;;2098416;28;20223;-63
2023/06/22 01:55:40;;;;;;;12.57;8.43;;;17.00;99.90;;;;;;2085464;28;20658;-64
2023/06/22 01:56:41;;;;;;;12.27;8.27;;;17.10;99.90;;;;;;2079830;28;20505;-64
2023/06/22 01:57:42;;;;;;;13.70;8.87;;;17.10;99.90;;;;;;2087812;28;20220;-64
2023/06/22 01:58:57;;;;;;;16.83;10.17;;;17.10;99.90;;;;;;2079877;28;20240;-64
2023/06/22 02:00:05;;;;;;;18.47;10.07;;;17.10;99.90;;;;;;2085352;28;20223;-64
2023/06/22 02:01:14;;;;;;;16.53;9.20;;;17.10;99.90;;;;;;2087386;28;20426;-64
2023/06/22 02:02:20;;;;;;;13.47;9.80;;;17.10;99.90;;;;;;2089042;28;20463;-63
2023/06/22 02:03:26;;;;;;;15.63;9.87;;;17.10;99.90;;;;;;2085052;28;20984;-63
2023/06/22 02:04:37;;;;;;;12.03;8.83;;;17.20;99.90;;;;;;2075151;28;20482;-63
2023/06/22 02:05:47;;;;;;;17.90;9.03;;;17.10;99.90;;;;;;2094433;28;20484;-64
2023/06/22 02:06:55;;;;;;;14.93;9.47;;;17.10;99.90;;;;;;2075299;28;20474;-63
2023/06/22 02:08:20;;;;;;;15.17;9.70;;;17.10;99.90;;;;;;2087810;28;20453;-65
2023/06/22 02:09:23;;;;;;;15.23;9.67;;;17.20;99.90;;;;;;2089885;28;20468;-63
2023/06/22 02:10:25;;;;;;;16.13;10.40;;;17.20;99.90;;;;;;2087119;28;20840;-64
2023/06/22 02:11:28;;;;;;;16.47;9.53;;;17.20;99.90;;;;;;2079543;28;20586;-63
2023/06/22 02:12:31;;;;;;;16.67;10.47;;;17.20;99.90;;;;;;2079830;28;20988;-63
2023/06/22 02:13:32;;;;;;;19.17;10.40;;;17.20;99.90;;;;;;2081985;28;21004;-64
2023/06/22 02:14:35;;;;;;;13.77;10.07;;;17.30;99.90;;;;;;2079955;28;20531;-64
2023/06/22 02:15:36;;;;;;;15.23;9.13;;;17.20;99.90;;;;;;2079729;28;20473;-64
2023/06/22 02:16:38;;;;;;;13.60;9.63;;;17.30;99.90;;;;;;2096081;28;22065;-63
2023/06/22 02:17:39;;;;;;;15.10;10.23;;;17.30;99.90;;;;;;2093843;28;20468;-64
2023/06/22 02:18:47;;;;;;;15.27;9.53;;;17.30;99.90;;;;;;2079734;28;20893;-66
2023/06/22 02:19:48;;;;;;;14.00;8.63;;;17.30;99.90;;;;;;2087330;28;20512;-64
2023/06/22 02:20:48;;;;;;;14.67;9.43;;;17.20;99.90;;;;;;2085480;28;20466;-66
2023/06/22 02:21:50;;;;;;;12.50;8.97;;;17.10;99.90;;;;;;2080679;28;20251;-64
2023/06/22 02:22:50;;;;;;;15.60;8.80;;;17.20;99.90;;;;;;2086668;28;20247;-64
2023/06/22 02:23:51;;;;;;;10.40;8.50;;;17.20;99.90;;;;;;2095018;28;20909;-64
2023/06/22 02:24:52;;;;;;;12.23;9.30;;;17.10;99.90;;;;;;2081111;28;20225;-64
2023/06/22 02:25:53;;;;;;;14.80;9.47;;;17.10;99.90;;;;;;2100441;28;20219;-64
2023/06/22 02:26:54;;;;;;;11.50;8.60;;;17.00;99.90;;;;;;2095766;28;20463;-64
2023/06/22 02:27:54;;;;;;;14.37;8.57;;;16.90;99.90;;;;;;2095648;28;20238;-64
2023/06/22 02:28:55;;;;;;;13.47;8.17;;;17.00;99.90;;;;;;2090021;28;20224;-64
2023/06/22 02:29:57;;;;;;;17.10;10.83;;;16.90;99.90;;;;;;2087995;28;20246;-66
2023/06/22 02:30:57;;;;;;;16.90;10.20;;;16.90;99.90;;;;;;2088320;28;20208;-64
2023/06/22 02:31:58;;;;;;;15.07;10.70;;;16.90;99.90;;;;;;2087845;28;20461;-64
2023/06/22 02:32:59;;;;;;;13.07;10.20;;;16.90;99.90;;;;;;2089426;28;20199;-64
2023/06/22 02:34:00;;;;;;;17.07;10.57;;;16.90;99.90;;;;;;2091355;28;20180;-64
2023/06/22 02:35:04;;;;;;;17.23;11.83;;;16.90;99.90;;;;;;2090675;28;20196;-64
2023/06/22 02:36:05;;;;;;;16.40;11.23;;;17.00;99.90;;;;;;2087698;28;20238;-64
2023/06/22 02:37:05;;;;;;;13.23;9.50;;;16.90;99.90;;;;;;2088413;28;20457;-64
2023/06/22 02:38:06;;;;;;;15.60;10.50;;;16.80;99.90;;;;;;2087914;28;20224;-64
2023/06/22 02:39:07;;;;;;;15.07;9.67;;;16.90;99.90;;;;;;2088198;28;20180;-64
2023/06/22 02:40:08;;;;;;;17.03;10.47;;;16.90;99.90;;;;;;2092393;28;20227;-64
2023/06/22 02:41:13;;;;;;;16.77;10.50;;;16.90;99.90;;;;;;2103121;28;20691;-64
2023/06/22 02:42:14;;;;;;;18.17;11.10;;;16.90;99.90;;;;;;2093180;28;20424;-63
2023/06/22 02:43:14;;;;;;;17.67;11.07;;;16.90;99.90;;;;;;2096124;28;20461;-64
2023/06/22 02:44:16;;;;;;;13.97;10.30;;;17.00;99.90;;;;;;2097522;28;20435;-64
2023/06/22 02:45:16;;;;;;;16.83;10.73;;;17.00;99.90;;;;;;2087860;28;20232;-64
2023/06/22 02:46:17;;;;;;;16.20;10.50;;;17.00;99.90;;;;;;2080874;28;20474;-64
2023/06/22 02:47:18;;;;;;;17.87;10.03;;;17.00;99.90;;;;;;2086477;28;21027;-63
2023/06/22 02:48:19;;;;;;;18.77;11.43;;;17.00;99.90;;;;;;2079818;28;20232;-64
2023/06/22 02:49:19;;;;;;;24.47;11.67;;;17.00;99.90;;;;;;2087753;28;20627;-64
2023/06/22 02:50:20;;;;;;;13.70;10.47;;;17.00;99.90;;;;;;2079093;28;20228;-64
2023/06/22 02:51:21;;;;;;;17.93;11.00;;;17.00;99.90;;;;;;2087610;28;20262;-64
2023/06/22 02:52:21;;;;;;;16.13;11.03;;;16.90;99.90;;;;;;2103504;28;20218;-64
2023/06/22 02:53:22;;;;;;;15.57;10.20;;;16.90;99.90;;;;;;2100513;28;20661;-64
2023/06/22 02:54:23;;;;;;;20.93;12.17;;;16.90;99.90;;;;;;2087852;28;20231;-64
2023/06/22 02:55:23;;;;;;;17.83;11.20;;;16.90;99.90;;;;;;2081895;28;20258;-64
2023/06/22 02:56:24;;;;;;;16.17;10.90;;;16.90;99.90;;;;;;2080769;28;20221;-64
2023/06/22 02:57:25;;;;;;;20.07;11.63;;;17.00;99.90;;;;;;2088107;28;20224;-65
2023/06/22 02:58:26;;;;;;;18.70;11.13;;;16.90;99.90;;;;;;2082952;28;20221;-64
2023/06/22 02:59:27;;;;;;;18.77;10.63;;;17.00;99.90;;;;;;2087005;28;20224;-64
2023/06/22 03:00:30;;;;;;;20.10;11.37;;;16.90;99.90;;;;;;2087175;28;20235;-64
2023/06/22 03:01:39;;;;;;;19.53;11.97;;;16.80;99.90;;;;;;2103283;28;20215;-64
2023/06/22 03:02:40;;;;;;;14.03;10.07;;;16.90;99.90;;;;;;2095119;28;20584;-64
2023/06/22 03:03:40;;;;;;;14.27;9.70;;;16.90;99.90;;;;;;2084522;28;20501;-64
2023/06/22 03:04:42;;;;;;;16.60;10.83;;;16.80;99.90;;;;;;2087955;28;20216;-63
2023/06/22 03:05:43;;;;;;;17.73;11.30;;;16.90;99.90;;;;;;2086626;28;21007;-64
2023/06/22 03:06:43;;;;;;;14.60;9.47;;;16.80;99.90;;;;;;2086869;28;20489;-63
2023/06/22 03:07:45;;;;;;;14.33;9.17;;;16.70;99.90;;;;;;2086853;28;20218;-64
2023/06/22 03:08:46;;;;;;;11.93;8.97;;;16.70;99.90;;;;;;2084701;28;20216;-64
2023/06/22 03:09:46;;;;;;;12.23;8.63;;;16.60;99.90;;;;;;2086946;28;20905;-64
2023/06/22 03:10:47;;;;;;;15.27;9.93;;;16.60;99.90;;;;;;2084894;28;20769;-64
2023/06/22 03:11:48;;;;;;;11.70;8.63;;;16.70;99.90;;;;;;2080404;28;20216;-64
2023/06/22 03:12:48;;;;;;;14.33;9.80;;;16.70;99.90;;;;;;2096089;28;20727;-64
2023/06/22 03:13:51;;;;;;;19.13;11.83;;;16.60;99.90;;;;;;2103268;28;20289;-63
2023/06/22 03:14:52;;;;;;;17.83;10.60;;;16.60;99.90;;;;;;2083249;28;20246;-64
2023/06/22 03:15:53;;;;;;;17.00;9.97;;;16.70;99.90;;;;;;2087976;28;20959;-65
2023/06/22 03:16:54;;;;;;;15.63;9.90;;;16.70;99.90;;;;;;2102754;28;20207;-64
2023/06/22 03:17:54;;;;;;;18.37;11.33;;;16.70;99.90;;;;;;2083785;28;20303;-67
2023/06/22 03:18:55;;;;;;;15.63;11.30;;;16.70;99.90;;;;;;2083348;28;20212;-64
2023/06/22 03:19:56;;;;;;;13.70;10.00;;;16.70;99.90;;;;;;2074438;28;20295;-66
2023/06/22 03:20:57;;;;;;;13.07;9.33;;;16.70;99.90;;;;;;2079102;28;20185;-66
2023/06/22 03:21:59;;;;;;;13.37;9.03;;;16.70;99.90;;;;;;2087518;28;20191;-64
2023/06/22 03:23:00;;;;;;;14.20;10.03;;;16.70;99.90;;;;;;2087370;28;20758;-65
2023/06/22 03:24:01;;;;;;;15.13;9.67;;;16.60;99.90;;;;;;2087090;28;20425;-65
2023/06/22 03:25:02;;;;;;;18.17;11.07;;;16.60;99.90;;;;;;2086941;28;20227;-67
2023/06/22 03:26:04;;;;;;;15.17;10.60;;;16.60;99.90;;;;;;2086824;28;20765;-65
2023/06/22 03:27:05;;;;;;;16.80;10.00;;;16.70;99.90;;;;;;2077124;28;20232;-64
2023/06/22 03:28:06;;;;;;;17.37;10.57;;;16.70;99.90;;;;;;2076912;28;20446;-65
2023/06/22 03:29:07;;;;;;;16.13;10.87;;;16.70;99.90;;;;;;2102063;28;20891;-65
2023/06/22 03:30:10;;;;;;;18.90;11.43;;;16.70;99.90;;;;;;2103031;28;20218;-64
2023/06/22 03:31:11;;;;;;;16.10;10.03;;;16.70;99.90;;;;;;2081143;28;20200;-65
2023/06/22 03:32:12;;;;;;;15.20;10.57;;;16.80;99.90;;;;;;2081029;28;20425;-66
2023/06/22 03:33:12;;;;;;;19.23;11.90;;;16.70;99.90;;;;;;2086472;28;20189;-65
2023/06/22 03:34:13;;;;;;;18.83;11.07;;;16.70;99.90;;;;;;2080301;28;20185;-65
2023/06/22 03:35:14;;;;;;;18.50;11.40;;;16.70;99.90;;;;;;2080486;28;20188;-65
2023/06/22 03:36:22;;;;;;;16.57;11.37;;;16.70;99.90;;;;;;2082936;28;20719;-65
2023/06/22 03:37:22;;;;;;;17.37;11.00;;;16.70;99.90;;;;;;2083708;28;20230;-64
2023/06/22 03:38:23;;;;;;;19.60;11.53;;;16.70;99.90;;;;;;2083406;28;20493;-65
2023/06/22 03:39:24;;;;;;;16.27;10.53;;;16.70;99.90;;;;;;2099039;28;20224;-65
2023/06/22 03:40:25;;;;;;;13.13;9.27;;;16.70;99.90;;;;;;2092087;28;20606;-64
2023/06/22 03:41:25;;;;;;;12.60;8.80;;;16.70;99.90;;;;;;2083030;28;20228;-64
2023/06/22 03:42:26;;;;;;;13.60;10.03;;;16.70;99.90;;;;;;2087693;28;20281;-64
2023/06/22 03:43:27;;;;;;;15.80;9.53;;;16.70;99.90;;;;;;2083115;28;20647;-64
2023/06/22 03:44:28;;;;;;;13.90;8.93;;;16.70;99.90;;;;;;2083032;28;20466;-64
2023/06/22 03:45:29;;;;;;;14.03;9.07;;;16.70;99.90;;;;;;2082575;28;20675;-64
2023/06/22 03:46:29;;;;;;;12.67;9.33;;;16.70;99.90;;;;;;2087176;28;20224;-65
2023/06/22 03:47:30;;;;;;;14.10;9.60;;;16.70;99.90;;;;;;2086716;28;20222;-63
2023/06/22 03:48:31;;;;;;;14.03;9.00;;;16.70;99.90;;;;;;2094917;28;20228;-66
2023/06/22 03:49:32;;;;;;;15.27;9.77;;;16.70;99.90;;;;;;2080376;28;20327;-63
2023/06/22 03:50:32;;;;;;;13.13;9.23;;;16.70;99.90;;;;;;2073190;28;21047;-63
2023/06/22 03:51:33;;;;;;;13.13;8.70;;;16.70;99.90;;;;;;2078620;28;20257;-63
2023/06/22 03:52:34;;;;;;;13.97;9.70;;;16.60;99.90;;;;;;2083048;28;20316;-64
2023/06/22 03:53:35;;;;;;;15.13;9.97;;;16.70;99.90;;;;;;2083354;28;20718;-64
2023/06/22 03:54:35;;;;;;;14.93;8.67;;;16.70;99.90;;;;;;2083162;28;20322;-64
2023/06/22 03:55:36;;;;;;;13.30;9.10;;;16.70;99.90;;;;;;2081136;28;20680;-64
2023/06/22 03:56:38;;;;;;;17.57;11.63;;;16.60;99.90;;;;;;2086804;28;20216;-64
2023/06/22 03:57:38;;;;;;;14.33;9.40;;;16.70;99.90;;;;;;2085900;28;20468;-64
2023/06/22 03:58:42;;;;;;;18.27;10.90;;;16.70;99.90;;;;;;2101353;28;20463;-64
2023/06/22 03:59:43;;;;;;;15.10;9.83;;;16.70;99.90;;;;;;2091512;28;20647;-64
2023/06/22 04:00:50;;;;;;;17.97;11.37;;;16.80;99.90;;;;;;2083571;28;20465;-64
2023/06/22 04:01:51;;;;;;;15.43;9.93;;;16.90;99.90;;;;;;2083284;28;20737;-64
2023/06/22 04:02:52;;;;;;;13.07;8.90;;;17.00;99.90;;;;;;2086733;28;20465;-64
2023/06/22 04:03:52;;;;;;;16.63;10.53;;;17.10;99.90;;;;;;2086756;28;20676;-64
2023/06/22 04:04:53;;;;;;;20.50;11.07;;;17.00;99.90;;;;;;2085823;28;20216;-64
2023/06/22 04:05:54;;;;;;;22.50;12.33;;;17.00;99.90;;;;;;2092665;28;20800;-64
2023/06/22 04:06:54;;;;;;;20.47;11.67;;;17.00;99.90;;;;;;2100375;28;20615;-63
2023/06/22 04:07:55;;;;;;;19.87;11.20;;;17.00;99.90;;;;;;2082027;28;20304;-64
2023/06/22 04:08:56;;;;;;;18.17;11.10;;;17.00;99.90;;;;;;2079637;28;20228;-66
2023/06/22 04:09:56;;;;;;;16.77;9.93;;;17.10;99.90;;;;;;2075627;28;20188;-64
2023/06/22 04:10:57;;;;;;;14.37;9.63;;;17.10;99.90;;;;;;2076112;28;20208;-64
2023/06/22 04:11:58;;;;;;;16.73;10.83;;;17.00;99.90;;;;;;2083933;28;20202;-64
2023/06/22 04:13:00;;;;;;;19.07;10.10;;;17.00;99.90;;;;;;2099773;28;20262;-64
2023/06/22 04:14:00;;;;;;;15.27;10.23;;;17.00;99.90;;;;;;2090859;28;20186;-63
2023/06/22 04:15:01;;;;;;;17.27;10.10;;;17.00;99.90;;;;;;2078652;28;21155;-65
2023/06/22 04:16:02;;;;;;;13.23;9.53;;;17.00;99.90;;;;;;2092843;28;20692;-64
2023/06/22 04:17:04;;;;;;;15.93;9.40;;;17.00;99.90;;;;;;2094405;28;20424;-64
2023/06/22 04:18:05;;;;;;;16.20;10.37;;;17.10;99.90;;;;;;2078709;28;20201;-64
2023/06/22 04:19:05;;;;;;;14.37;9.97;;;17.10;99.90;;;;;;2087301;28;20423;-64
2023/06/22 04:20:07;;;;;;;14.33;10.13;;;17.20;99.90;;;;;;2087714;28;20173;-64
2023/06/22 04:21:08;;;;;;;14.07;9.03;;;17.20;99.90;;;;;;2086474;28;20180;-64
2023/06/22 04:22:09;;;;;;;15.37;9.87;;;17.20;99.90;;;;;;2085524;28;20418;-64
2023/06/22 04:23:10;;;;;;;19.17;11.10;;;17.20;99.90;;;;;;2086757;28;20634;-64
2023/06/22 04:24:11;;;;;;;15.97;10.53;;;17.10;99.90;;;;;;2086749;28;20505;-64
2023/06/22 04:25:12;;;;;;;15.50;10.07;;;17.10;99.90;;;;;;2085024;28;20191;-64
2023/06/22 04:26:14;;;;;;;18.53;10.90;;;17.10;99.90;;;;;;2083644;28;20441;-63
2023/06/22 04:27:14;;;;;;;15.90;10.97;;;17.20;99.90;;;;;;2083068;28;20188;-63
2023/06/22 04:28:15;;;;;;;16.67;10.90;;;17.20;99.90;;;;;;2083604;28;23244;-63
2023/06/22 04:29:16;;;;;;;16.90;10.40;;;17.20;99.90;;;;;;2086950;28;20243;-63
2023/06/22 04:30:17;;;;;;;18.17;10.83;;;17.20;99.90;;;;;;2099531;28;20234;-63
2023/06/22 04:31:21;;;;;;;17.87;11.50;;;17.20;99.90;;;;;;2102378;28;20281;-63
2023/06/22 04:32:21;;;;;;;13.00;9.50;;;17.20;99.90;;;;;;2085403;28;20220;-64
2023/06/22 04:33:22;;;;;;;15.93;10.60;;;17.20;99.90;;;;;;2086013;28;20480;-64
2023/06/22 04:34:26;;;;;;;19.33;10.83;;;17.20;99.90;;;;;;2086921;28;20262;-62
2023/06/22 04:35:29;;;;;;;18.33;11.30;;;17.30;99.90;;;;;;2079355;28;20866;-66
2023/06/22 04:36:40;;;;;;;18.33;12.13;;;17.20;99.90;;;;;;2086843;28;20461;-65
2023/06/22 04:37:41;;;;;;;15.13;10.23;;;17.30;99.90;;;;;;2084829;28;20472;-65
2023/06/22 04:38:42;;;;;;;15.30;10.57;;;17.20;99.90;;;;;;2084588;28;20970;-64
2023/06/22 04:39:43;;;;;;;17.60;11.00;;;17.20;99.90;;;;;;2099756;28;20235;-65
2023/06/22 04:40:44;;;;;;;15.70;11.10;;;17.20;99.90;;;;;;2099336;28;20229;-64
2023/06/22 04:41:45;;;;;;;12.87;9.57;;;17.30;99.90;;;;;;2092056;28;20457;-64
2023/06/22 04:42:52;;;;;;;21.73;11.60;;;17.30;99.90;;;;;;2091938;28;20247;-63
2023/06/22 04:43:53;;;;;;;17.57;11.20;;;17.30;99.90;;;;;;2088151;28;20492;-64
2023/06/22 04:44:54;;;;;;;20.70;12.57;;;17.30;99.90;;;;;;2086308;28;20488;-64
2023/06/22 04:45:55;;;;;;;19.13;11.90;;;17.40;99.90;;;;;;2087142;28;20488;-63
2023/06/22 04:47:03;;;;;;;23.23;11.77;;;17.50;99.90;;;;;;2088506;28;20236;-67
2023/06/22 04:48:05;;;;;;;17.20;11.23;;;17.50;99.90;;;;;;2087301;28;20211;-64
2023/06/22 04:49:09;;;;;;;18.40;11.10;;;17.60;99.90;;;;;;2082358;28;20468;-64
2023/06/22 04:50:10;;;;;;;19.80;11.33;;;17.70;99.90;;;;;;2090001;28;20452;-64
2023/06/22 04:51:11;;;;;;;13.73;9.97;;;17.80;99.90;;;;;;2089169;28;20449;-63
2023/06/22 04:52:13;;;;;;;12.83;9.73;;;17.80;99.90;;;;;;2079701;28;20181;-64
2023/06/22 04:53:14;;;;;;;14.67;10.10;;;17.80;99.90;;;;;;2102619;28;20190;-64
2023/06/22 04:54:15;;;;;;;14.77;10.10;;;17.80;99.90;;;;;;2102758;28;21094;-62
2023/06/22 04:55:18;;;;;;;16.10;10.73;;;17.80;99.90;;;;;;2083193;28;20758;-64
2023/06/22 04:56:21;;;;;;;14.87;10.57;;;17.80;99.90;;;;;;2082102;28;20224;-64
2023/06/22 04:57:30;;;;;;;14.13;10.33;;;17.90;99.90;;;;;;2081215;28;20480;-64
2023/06/22 04:58:32;;;;;;;16.97;11.93;;;18.00;99.90;;;;;;2086589;28;21162;-64
2023/06/22 04:59:33;;;;;;;14.37;10.40;;;18.00;99.90;;;;;;2073550;28;20517;-64
2023/06/22 05:00:36;;;;;;;17.17;11.63;;;18.00;99.90;;;;;;2088619;28;21385;-64
2023/06/22 05:01:37;;;;;;;15.80;10.03;;;18.00;99.90;;;;;;2101562;28;20294;-64
2023/06/22 05:02:41;;;;;;;14.00;10.63;;;18.00;99.90;;;;;;2082930;28;20461;-64
2023/06/22 05:03:41;;;;;;;16.63;11.23;;;18.10;99.90;;;;;;2080060;28;20485;-64
2023/06/22 05:04:42;;;;;;;16.50;10.33;;;18.10;99.90;;;;;;2098225;28;20549;-64
2023/06/22 05:05:43;;;;;;;16.30;10.37;;;18.10;99.90;;;;;;2099204;28;20219;-64
2023/06/22 05:06:43;;;;;;;16.67;11.23;;;18.10;99.90;;;;;;2087784;28;20231;-64
2023/06/22 05:07:48;;;;;;;21.43;13.00;;;18.10;99.90;;;;;;2093055;28;20328;-64
2023/06/22 05:08:48;;;;;;;16.00;10.53;;;18.10;99.90;;;;;;2098668;28;20246;-64
2023/06/22 05:09:49;;;;;;;16.87;10.63;;;18.00;99.90;;;;;;2084665;28;20473;-64
2023/06/22 05:10:50;;;;;;;19.50;12.80;;;18.00;99.90;;;;;;2081230;28;20238;-64
2023/06/22 05:11:51;;;;;;;18.80;11.47;;;18.00;99.90;;;;;;2081262;28;20651;-65
2023/06/22 05:12:52;;;;;;;17.50;11.57;;;18.10;99.90;;;;;;2083041;28;20220;-64
2023/06/22 05:13:53;;;;;;;18.20;11.40;;;18.00;99.90;;;;;;2086687;28;20461;-64
2023/06/22 05:14:54;;;;;;;18.53;11.97;;;18.10;99.90;;;;;;2099213;28;20225;-63
2023/06/22 05:16:00;;;;;;;16.57;10.83;;;18.10;99.90;;;;;;2096108;28;21229;-64
2023/06/22 05:17:03;;;;;;;16.40;11.77;;;18.10;99.90;;;;;;2095042;28;20207;-64
2023/06/22 05:18:05;;;;;;;15.40;11.30;;;18.10;99.90;;;;;;2094620;28;20438;-64
2023/06/22 05:19:06;;;;;;;17.90;11.23;;;18.10;99.90;;;;;;2083845;28;20424;-64
2023/06/22 05:20:08;;;;;;;16.63;10.63;;;18.20;99.90;;;;;;2093556;28;20495;-64
2023/06/22 05:21:09;;;;;;;15.67;11.33;;;18.10;99.90;;;;;;2101886;28;20198;-64